Westwood Robson — A8PD8 — position and weather

sailwx.info

Track history (hours):
 
Tides and Currents Weather Stations Pressure Air Temp Water Temp Dewpoint Dewpoint Depression Visibility Wind Speed Wind Dir Waves Ship Positions

Westwood Robson

Last reported at 2017-Sep-22 01:38 UTC. Time now 2017-Oct-22 19:01 UTC.
Position N 34°09' W 119°12'.
Warning: this ship's position is 30 days out of date.

Length 209 m; draft 9 m.

Type: Ship (hazmat cat A). MMSI: 636017154.

Date/timePositionNaut miles runAvg speedWind from/ knotsBaromVisibWave heightAir tempDewpointWater temp
2017-Sep-22 01:38N 34°09' W 119°12'0 0.0
2017-Sep-22 01:29N 34°09' W 119°12'0 0.0
2017-Sep-22 00:14N 34°09' W 119°12'0 2.1
2017-Sep-22 00:00N 34°09' W 119°13'2 4.5
2017-Sep-21 23:29N 34°06' W 119°13'1 2.3
2017-Sep-21 22:58N 34°07' W 119°12'0 0.1
2017-Sep-21 22:30N 34°07' W 119°12'0 0.0
2017-Sep-21 21:54N 34°07' W 119°12'0 0.0
2017-Sep-21 21:24N 34°07' W 119°12'0 0.0
2017-Sep-21 20:48N 34°07' W 119°12'0 0.0
2017-Sep-21 19:36N 34°07' W 119°12'0 0.2
2017-Sep-21 19:27N 34°07' W 119°12'0 0.0
2017-Sep-21 17:39N 34°07' W 119°12'0 0.1
2017-Sep-21 17:30N 34°07' W 119°12'0 0.0
2017-Sep-21 17:00N 34°07' W 119°12'0 0.0
2017-Sep-21 16:30N 34°07' W 119°12'0 0.0
2017-Sep-21 16:00N 34°07' W 119°12'0 0.0
2017-Sep-21 15:12N 34°07' W 119°12'0 0.3
2017-Sep-21 14:59N 34°07' W 119°12'4 8.0
2017-Sep-21 14:31N 34°03' W 119°12'815.0
2017-Sep-21 14:00N 33°59' W 119°04'815.5
2017-Sep-21 13:30N 33°55' W 118°56'816.0
2017-Sep-21 13:00N 33°51' W 118°48'815.1
2017-Sep-21 12:31N 33°48' W 118°40'611.8
2017-Sep-21 12:00N 33°45' W 118°34'1510.9
2017-Sep-21 10:38N 33°39' W 118°17'110.9
2017-Sep-21 10:30N 33°40' W 118°16'4 8.1
2017-Sep-21 10:00N 33°44' W 118°15'0 0.7
2017-Sep-21 09:30N 33°44' W 118°15'0 0.0
2017-Sep-21 06:20N 33°44' W 118°15'0 0.0
2017-Sep-21 05:50N 33°44' W 118°15'0 0.0
2017-Sep-21 05:26N 33°44' W 118°15'0 0.0
2017-Sep-21 04:50N 33°44' W 118°15'0 0.0
2017-Sep-21 04:26N 33°44' W 118°15'0 0.0
2017-Sep-21 03:56N 33°44' W 118°15'0 0.0
2017-Sep-21 03:20N 33°44' W 118°15'0 0.0
2017-Sep-21 02:56N 33°44' W 118°15'0 0.0
2017-Sep-21 02:20N 33°44' W 118°15'0 0.0
2017-Sep-21 01:56N 33°44' W 118°15'0 0.0
2017-Sep-21 01:20N 33°44' W 118°15'0 0.0
2017-Sep-21 00:56N 33°44' W 118°15'0 0.0
2017-Sep-21 00:26N 33°44' W 118°15'0 0.0
2017-Sep-20 23:56N 33°44' W 118°15'0 0.0
2017-Sep-20 23:20N 33°44' W 118°15'0 0.0
2017-Sep-20 22:56N 33°44' W 118°15'0 0.0
2017-Sep-20 22:26N 33°44' W 118°15'0 0.0
2017-Sep-20 21:56N 33°44' W 118°15'0 0.0
2017-Sep-20 21:26N 33°44' W 118°15'0 0.0
2017-Sep-20 20:50N 33°44' W 118°15'0 0.0
2017-Sep-20 20:26N 33°44' W 118°15'0 0.0
2017-Sep-20 19:56N 33°44' W 118°15'0 0.0
2017-Sep-20 19:26N 33°44' W 118°15'0 0.0
2017-Sep-20 18:56N 33°44' W 118°15'0 0.0
2017-Sep-20 18:20N 33°44' W 118°15'0 0.0
2017-Sep-20 17:56N 33°44' W 118°15'0 0.0
2017-Sep-20 17:14N 33°44' W 118°15'0 0.0
2017-Sep-20 16:50N 33°44' W 118°15'0 0.0
2017-Sep-20 16:26N 33°44' W 118°15'0 0.0
2017-Sep-20 15:44N 33°44' W 118°15'0 0.0
2017-Sep-20 15:26N 33°44' W 118°15'0 0.0
2017-Sep-20 14:38N 33°44' W 118°15'0 0.0
2017-Sep-20 13:56N 33°44' W 118°15'0 0.0
2017-Sep-20 13:26N 33°44' W 118°15'0 0.0
2017-Sep-20 12:56N 33°44' W 118°15'0 0.0
2017-Sep-20 12:20N 33°44' W 118°15'0 0.0
2017-Sep-20 11:56N 33°44' W 118°15'0 0.0
2017-Sep-20 11:26N 33°44' W 118°15'0 0.0
2017-Sep-20 10:50N 33°44' W 118°15'0 1.3
2017-Sep-20 10:30N 33°44' W 118°15'2 4.1
2017-Sep-20 10:00N 33°42' W 118°15'4 7.6
2017-Sep-20 09:30N 33°39' W 118°13'5 9.6
2017-Sep-20 09:00N 33°35' W 118°09'5 9.8
2017-Sep-20 08:30N 33°30' W 118°07'510.6
2017-Sep-20 08:00N 33°25' W 118°05'815.9
2017-Sep-20 07:31N 33°18' W 118°02'816.6
2017-Sep-20 07:01N 33°10' W 117°58'816.4
2017-Sep-20 06:30N 33°02' W 117°55'816.8
2017-Sep-20 06:00N 32°55' W 117°50'816.6
2017-Sep-20 05:30N 32°47' W 117°46'917.2
2017-Sep-20 05:01N 32°39' W 117°42'816.5
2017-Sep-20 04:31N 32°32' W 117°38'816.3
2017-Sep-20 04:00N 32°24' W 117°35'  
Track history (hours):
 
Tides and Currents Weather Stations Pressure Air Temp Water Temp Dewpoint Dewpoint Depression Visibility Wind Speed Wind Dir Waves Ship Positions

Westwood Robson

Last reported at 2017-Sep-22 01:38 UTC. Time now 2017-Oct-22 19:01 UTC.
Position N 34°09' W 119°12'.
Warning: this ship's position is 30 days out of date.

Length 209 m; draft 9 m.

Type: Ship (hazmat cat A). MMSI: 636017154.

Date/timePositionNaut miles runAvg speedWind from/ knotsBaromVisibWave heightAir tempDewpointWater temp
2017-Sep-22 01:38N 34°09' W 119°12'0 0.0
2017-Sep-22 01:29N 34°09' W 119°12'0 0.0
2017-Sep-22 00:14N 34°09' W 119°12'0 2.1
2017-Sep-22 00:00N 34°09' W 119°13'2 4.5
2017-Sep-21 23:29N 34°06' W 119°13'1 2.3
2017-Sep-21 22:58N 34°07' W 119°12'0 0.1
2017-Sep-21 22:30N 34°07' W 119°12'0 0.0
2017-Sep-21 21:54N 34°07' W 119°12'0 0.0
2017-Sep-21 21:24N 34°07' W 119°12'0 0.0
2017-Sep-21 20:48N 34°07' W 119°12'0 0.0
2017-Sep-21 19:36N 34°07' W 119°12'0 0.2
2017-Sep-21 19:27N 34°07' W 119°12'0 0.0
2017-Sep-21 17:39N 34°07' W 119°12'0 0.1
2017-Sep-21 17:30N 34°07' W 119°12'0 0.0
2017-Sep-21 17:00N 34°07' W 119°12'0 0.0
2017-Sep-21 16:30N 34°07' W 119°12'0 0.0
2017-Sep-21 16:00N 34°07' W 119°12'0 0.0
2017-Sep-21 15:12N 34°07' W 119°12'0 0.3
2017-Sep-21 14:59N 34°07' W 119°12'4 8.0
2017-Sep-21 14:31N 34°03' W 119°12'815.0
2017-Sep-21 14:00N 33°59' W 119°04'815.5
2017-Sep-21 13:30N 33°55' W 118°56'816.0
2017-Sep-21 13:00N 33°51' W 118°48'815.1
2017-Sep-21 12:31N 33°48' W 118°40'611.8
2017-Sep-21 12:00N 33°45' W 118°34'1510.9
2017-Sep-21 10:38N 33°39' W 118°17'110.9
2017-Sep-21 10:30N 33°40' W 118°16'4 8.1
2017-Sep-21 10:00N 33°44' W 118°15'0 0.7
2017-Sep-21 09:30N 33°44' W 118°15'0 0.0
2017-Sep-21 06:20N 33°44' W 118°15'0 0.0
2017-Sep-21 05:50N 33°44' W 118°15'0 0.0
2017-Sep-21 05:26N 33°44' W 118°15'0 0.0
2017-Sep-21 04:50N 33°44' W 118°15'0 0.0
2017-Sep-21 04:26N 33°44' W 118°15'0 0.0
2017-Sep-21 03:56N 33°44' W 118°15'0 0.0
2017-Sep-21 03:20N 33°44' W 118°15'0 0.0
2017-Sep-21 02:56N 33°44' W 118°15'0 0.0
2017-Sep-21 02:20N 33°44' W 118°15'0 0.0
2017-Sep-21 01:56N 33°44' W 118°15'0 0.0
2017-Sep-21 01:20N 33°44' W 118°15'0 0.0
2017-Sep-21 00:56N 33°44' W 118°15'0 0.0
2017-Sep-21 00:26N 33°44' W 118°15'0 0.0
2017-Sep-20 23:56N 33°44' W 118°15'0 0.0
2017-Sep-20 23:20N 33°44' W 118°15'0 0.0
2017-Sep-20 22:56N 33°44' W 118°15'0 0.0
2017-Sep-20 22:26N 33°44' W 118°15'0 0.0
2017-Sep-20 21:56N 33°44' W 118°15'0 0.0
2017-Sep-20 21:26N 33°44' W 118°15'0 0.0
2017-Sep-20 20:50N 33°44' W 118°15'0 0.0
2017-Sep-20 20:26N 33°44' W 118°15'0 0.0
2017-Sep-20 19:56N 33°44' W 118°15'0 0.0
2017-Sep-20 19:26N 33°44' W 118°15'0 0.0
2017-Sep-20 18:56N 33°44' W 118°15'0 0.0
2017-Sep-20 18:20N 33°44' W 118°15'0 0.0
2017-Sep-20 17:56N 33°44' W 118°15'0 0.0
2017-Sep-20 17:14N 33°44' W 118°15'0 0.0
2017-Sep-20 16:50N 33°44' W 118°15'0 0.0
2017-Sep-20 16:26N 33°44' W 118°15'0 0.0
2017-Sep-20 15:44N 33°44' W 118°15'0 0.0
2017-Sep-20 15:26N 33°44' W 118°15'0 0.0
2017-Sep-20 14:38N 33°44' W 118°15'0 0.0
2017-Sep-20 13:56N 33°44' W 118°15'0 0.0
2017-Sep-20 13:26N 33°44' W 118°15'0 0.0
2017-Sep-20 12:56N 33°44' W 118°15'0 0.0
2017-Sep-20 12:20N 33°44' W 118°15'0 0.0
2017-Sep-20 11:56N 33°44' W 118°15'0 0.0
2017-Sep-20 11:26N 33°44' W 118°15'0 0.0
2017-Sep-20 10:50N 33°44' W 118°15'0 1.3
2017-Sep-20 10:30N 33°44' W 118°15'2 4.1
2017-Sep-20 10:00N 33°42' W 118°15'4 7.6
2017-Sep-20 09:30N 33°39' W 118°13'5 9.6
2017-Sep-20 09:00N 33°35' W 118°09'5 9.8
2017-Sep-20 08:30N 33°30' W 118°07'510.6
2017-Sep-20 08:00N 33°25' W 118°05'815.9
2017-Sep-20 07:31N 33°18' W 118°02'816.6
2017-Sep-20 07:01N 33°10' W 117°58'816.4
2017-Sep-20 06:30N 33°02' W 117°55'816.8
2017-Sep-20 06:00N 32°55' W 117°50'816.6
2017-Sep-20 05:30N 32°47' W 117°46'917.2
2017-Sep-20 05:01N 32°39' W 117°42'816.5
2017-Sep-20 04:31N 32°32' W 117°38'816.3
2017-Sep-20 04:00N 32°24' W 117°35'  

Dump ship's entire track history